createdAt,value
2019-05-15T00:02:10.620Z,1.40
2019-05-15T00:04:49.286Z,1.50
2019-05-15T00:07:31.102Z,1.40
2019-05-15T00:10:13.062Z,1.53
2019-05-15T00:12:54.855Z,1.53
2019-05-15T00:15:36.924Z,1.43
2019-05-15T00:18:08.719Z,1.43
2019-05-15T00:21:02.800Z,1.40
2019-05-15T00:23:44.415Z,1.60
2019-05-15T00:26:25.586Z,1.67
2019-05-15T00:29:12.759Z,1.43
2019-05-15T00:31:50.419Z,1.30
2019-05-15T00:34:32.197Z,1.50
2019-05-15T00:37:13.913Z,1.60
2019-05-15T00:39:56.046Z,1.73
2019-05-15T00:42:38.383Z,1.50
2019-05-15T00:45:20.042Z,1.90
2019-05-15T00:48:01.735Z,2.07
2019-05-15T00:50:43.185Z,1.87
2019-05-15T00:53:24.368Z,1.90
2019-05-15T00:56:08.662Z,2.00
2019-05-15T00:58:49.915Z,1.80
2019-05-15T01:01:31.265Z,1.80
2019-05-15T01:04:13.185Z,2.00
2019-05-15T01:06:55.279Z,1.90
2019-05-15T01:09:38.465Z,1.83
2019-05-15T01:12:20.121Z,2.13
2019-05-15T01:15:02.008Z,1.80
2019-05-15T01:17:44.065Z,1.80
2019-05-15T01:20:25.395Z,1.90
2019-05-15T01:23:08.895Z,1.90
2019-05-15T01:25:49.512Z,2.00
2019-05-15T01:28:31.234Z,3.37
2019-05-15T01:31:13.156Z,2.27
2019-05-15T01:33:55.362Z,1.90
2019-05-15T01:36:38.206Z,1.90
2019-05-15T01:42:19.442Z,1.87
2019-05-15T01:45:00.768Z,1.97
2019-05-15T01:47:42.712Z,1.97
2019-05-15T01:50:24.034Z,1.87
2019-05-15T01:53:08.006Z,2.10
2019-05-15T01:55:49.718Z,2.47
2019-05-15T01:58:31.157Z,1.83
2019-05-15T02:01:12.301Z,1.87
2019-05-15T02:03:54.223Z,2.00
2019-05-15T02:06:36.068Z,2.10
2019-05-15T02:09:18.657Z,1.90
2019-05-15T02:12:00.151Z,2.10
2019-05-15T02:14:42.222Z,2.10
2019-05-15T02:17:24.015Z,2.27
2019-05-15T02:20:05.249Z,2.20
2019-05-15T02:22:50.090Z,1.80
2019-05-15T02:25:31.602Z,2.20
2019-05-15T02:28:12.871Z,2.00
2019-05-15T02:30:54.282Z,2.20
2019-05-15T02:33:39.768Z,1.90
2019-05-15T02:36:21.008Z,2.13
2019-05-15T02:39:02.751Z,1.90
2019-05-15T02:41:44.757Z,2.10
2019-05-15T02:44:29.206Z,2.13
2019-05-15T02:47:09.677Z,2.00
2019-05-15T02:49:51.509Z,2.30
2019-05-15T02:52:33.145Z,2.23
2019-05-15T02:55:15.088Z,2.30
2019-05-15T02:57:59.082Z,2.30
2019-05-15T03:00:47.489Z,1.73
2019-05-15T03:03:23.890Z,2.30
2019-05-15T03:06:11.043Z,2.50
2019-05-15T03:09:05.652Z,2.40
2019-05-15T03:12:08.887Z,2.30
2019-05-15T03:14:49.225Z,2.33
2019-05-15T03:17:30.893Z,2.20
2019-05-15T03:20:12.954Z,2.10
2019-05-15T03:22:54.831Z,2.00
2019-05-15T03:25:39.888Z,2.43
2019-05-15T03:28:19.802Z,2.77
2019-05-15T03:31:17.597Z,2.40
2019-05-15T03:33:46.471Z,2.70
2019-05-15T03:36:31.777Z,2.40
2019-05-15T03:39:10.673Z,2.43
2019-05-15T03:41:52.625Z,2.30
2019-05-15T03:44:34.680Z,2.20
2019-05-15T03:47:19.170Z,2.60
2019-05-15T03:50:00.157Z,2.50
2019-05-15T03:52:41.542Z,2.53
2019-05-15T03:55:23.177Z,2.43
2019-05-15T03:58:05.156Z,2.60
2019-05-15T04:00:49.590Z,2.60
2019-05-15T04:03:30.230Z,2.80
2019-05-15T04:06:12.325Z,2.40
2019-05-15T04:08:53.554Z,2.77
2019-05-15T04:11:38.545Z,2.60
2019-05-15T04:14:19.349Z,2.57
2019-05-15T04:17:01.493Z,2.50
2019-05-15T04:25:42.317Z,2.80
2019-05-15T04:28:29.011Z,2.50
2019-05-15T04:31:09.576Z,2.40
2019-05-15T04:33:51.127Z,2.63
2019-05-15T04:36:32.378Z,2.70
2019-05-15T04:39:19.043Z,2.70
2019-05-15T04:41:59.204Z,2.60
2019-05-15T04:44:40.598Z,2.50
2019-05-15T04:47:22.701Z,2.53
2019-05-15T04:50:04.497Z,3.20
2019-05-15T04:52:49.912Z,2.60
2019-05-15T04:55:29.322Z,2.80
2019-05-15T04:58:10.983Z,2.77
2019-05-15T05:00:52.660Z,2.20
2019-05-15T05:03:34.794Z,2.67
2019-05-15T05:06:18.811Z,2.27
2019-05-15T05:08:59.722Z,2.60
2019-05-15T05:11:41.299Z,2.27
2019-05-15T05:14:22.756Z,2.50
2019-05-15T05:17:04.548Z,2.40
2019-05-15T05:19:47.842Z,1.90
2019-05-15T05:22:29.475Z,3.00
2019-05-15T05:25:10.707Z,2.77
2019-05-15T05:27:40.153Z,2.40
2019-05-15T05:30:29.332Z,2.10
2019-05-15T05:33:31.801Z,2.30
2019-05-15T05:36:13.632Z,2.97
2019-05-15T05:38:55.510Z,2.30
2019-05-15T05:41:39.151Z,2.07
2019-05-15T05:44:21.022Z,2.63
2019-05-15T05:47:02.789Z,2.30
2019-05-15T05:49:44.518Z,2.30
2019-05-15T05:52:28.013Z,2.30
2019-05-15T05:55:09.590Z,2.60
2019-05-15T05:57:50.932Z,2.17
2019-05-15T06:00:32.174Z,1.80
2019-05-15T06:03:14.205Z,2.43
2019-05-15T06:05:58.834Z,1.97
2019-05-15T06:08:39.033Z,6.57
2019-05-15T06:11:20.522Z,2.13
2019-05-15T06:14:02.553Z,1.80
2019-05-15T06:16:44.341Z,2.07
2019-05-15T06:19:27.788Z,2.17
2019-05-15T06:22:10.054Z,2.10
2019-05-15T06:24:51.767Z,2.43
2019-05-15T06:27:35.668Z,1.87
2019-05-15T06:30:22.074Z,2.20
2019-05-15T06:33:09.061Z,1.97
2019-05-15T06:35:45.177Z,1.90
2019-05-15T06:38:31.045Z,2.10
2019-05-15T06:41:11.988Z,1.60
2019-05-15T06:43:41.477Z,2.20
2019-05-15T06:46:30.213Z,2.13
2019-05-15T06:49:11.774Z,1.43
2019-05-15T06:51:51.372Z,1.63
2019-05-15T06:54:40.146Z,2.37
2019-05-15T06:57:22.176Z,2.00
2019-05-15T07:00:03.393Z,1.50
2019-05-15T07:02:45.436Z,1.87
2019-05-15T07:05:29.433Z,1.20
2019-05-15T07:08:13.572Z,1.50
2019-05-15T07:10:58.354Z,1.37
2019-05-15T07:13:40.965Z,1.30
2019-05-15T07:16:22.197Z,2.33
2019-05-15T07:19:03.968Z,1.50
2019-05-15T07:21:45.918Z,1.40
2019-05-15T07:24:28.903Z,1.10
2019-05-15T07:27:10.573Z,1.43
2019-05-15T07:29:52.507Z,1.20
2019-05-15T07:32:33.832Z,1.00
2019-05-15T07:35:15.984Z,1.50
2019-05-15T07:37:58.618Z,1.40
2019-05-15T07:40:40.035Z,1.10
2019-05-15T07:43:21.809Z,1.40
2019-05-15T07:46:08.121Z,1.40
2019-05-15T07:48:49.288Z,1.50
2019-05-15T07:51:31.517Z,1.20
2019-05-15T07:54:13.178Z,1.30
2019-05-15T07:56:55.265Z,1.10
2019-05-15T07:59:38.617Z,1.30
2019-05-15T08:02:19.984Z,1.60
2019-05-15T08:05:01.751Z,1.40
2019-05-15T08:07:41.609Z,1.20
2019-05-15T08:10:30.325Z,1.10
2019-05-15T08:13:12.386Z,1.03
2019-05-15T08:15:53.861Z,1.30
2019-05-15T08:18:35.905Z,1.33
2019-05-15T08:21:18.598Z,1.13
2019-05-15T08:24:00.115Z,2.03
2019-05-15T08:26:45.457Z,1.03
2019-05-15T08:29:25.207Z,1.60
2019-05-15T08:32:08.428Z,1.80
2019-05-15T08:34:50.031Z,1.30
2019-05-15T08:37:31.232Z,1.20
2019-05-15T08:40:13.466Z,1.10
2019-05-15T08:43:01.137Z,1.50
2019-05-15T08:45:39.186Z,1.03
2019-05-15T08:48:20.461Z,1.77
2019-05-15T08:51:02.532Z,1.27
2019-05-15T08:53:43.984Z,1.50
2019-05-15T08:56:25.275Z,1.23
2019-05-15T08:59:05.082Z,1.10
2019-05-15T09:01:54.915Z,1.47
2019-05-15T09:04:40.165Z,1.73
2019-05-15T09:07:21.441Z,1.20
2019-05-15T09:10:03.235Z,1.03
2019-05-15T09:12:45.297Z,1.37
2019-05-15T09:15:29.361Z,1.13
2019-05-15T09:18:15.814Z,1.70
2019-05-15T09:20:53.261Z,1.20
2019-05-15T09:23:34.833Z,1.40
2019-05-15T09:26:19.237Z,1.20
2019-05-15T09:28:59.808Z,1.10
2019-05-15T09:31:29.178Z,1.73
2019-05-15T09:34:48.071Z,1.10
2019-05-15T09:37:44.659Z,2.03
2019-05-15T09:40:43.274Z,1.27
2019-05-15T09:43:25.444Z,1.30
2019-05-15T09:46:10.177Z,1.10
2019-05-15T09:48:51.794Z,1.63
2019-05-15T09:51:33.445Z,1.53
2019-05-15T09:54:15.287Z,1.20
2019-05-15T09:56:58.673Z,1.43
2019-05-15T09:59:40.416Z,1.20
2019-05-15T10:02:22.151Z,1.20
2019-05-15T10:05:10.632Z,1.40
2019-05-15T10:07:49.542Z,1.27
2019-05-15T10:10:30.732Z,1.60
2019-05-15T10:13:12.431Z,1.10
2019-05-15T10:15:54.559Z,1.13
2019-05-15T10:18:39.012Z,1.27
2019-05-15T10:21:20.312Z,1.07
2019-05-15T10:23:49.852Z,1.20
2019-05-15T10:26:58.124Z,1.20
2019-05-15T10:29:39.918Z,1.20
2019-05-15T10:32:21.930Z,1.60
2019-05-15T10:35:03.299Z,1.30
2019-05-15T10:37:45.080Z,1.30
2019-05-15T10:40:29.771Z,1.10
2019-05-15T10:43:11.996Z,1.30
2019-05-15T10:45:42.651Z,1.37
2019-05-15T10:48:19.001Z,1.60
2019-05-15T10:51:10.090Z,1.13
2019-05-15T10:53:49.966Z,1.40
2019-05-15T10:56:31.616Z,1.77
2019-05-15T10:59:11.292Z,1.30
2019-05-15T11:01:40.925Z,1.37
2019-05-15T11:04:22.489Z,1.60
2019-05-15T11:07:04.271Z,1.30
2019-05-15T11:09:48.717Z,1.80
2019-05-15T11:12:29.371Z,1.80
2019-05-15T11:15:11.526Z,1.50
2019-05-15T11:17:53.159Z,1.70
2019-05-15T11:20:34.546Z,1.60
2019-05-15T11:23:19.484Z,1.80
2019-05-15T11:25:59.248Z,1.50
2019-05-15T11:28:40.673Z,1.37
2019-05-15T11:31:24.782Z,1.50
2019-05-15T11:34:05.794Z,1.73
2019-05-15T11:36:48.435Z,1.40
2019-05-15T11:39:30.031Z,2.90
2019-05-15T11:42:11.876Z,1.30
2019-05-15T11:44:53.473Z,1.57
2019-05-15T11:47:35.336Z,1.50
2019-05-15T11:50:20.387Z,1.37
2019-05-15T11:53:01.049Z,1.40
2019-05-15T11:55:42.195Z,1.35
2019-05-15T11:58:24.053Z,1.82
2019-05-15T12:01:05.991Z,1.40
2019-05-15T12:03:47.837Z,1.60
2019-05-15T12:06:29.604Z,1.30
2019-05-15T12:09:11.168Z,1.80
2019-05-15T12:11:56.143Z,1.15
2019-05-15T12:14:38.983Z,1.57
2019-05-15T12:17:20.919Z,1.15
2019-05-15T12:20:06.598Z,1.10
2019-05-15T12:22:48.313Z,1.05
2019-05-15T12:25:31.723Z,1.17
2019-05-15T12:28:13.106Z,1.50
2019-05-15T12:30:59.337Z,1.37
2019-05-15T12:33:39.598Z,1.17
2019-05-15T12:36:46.207Z,1.27
2019-05-15T12:39:10.533Z,1.30
2019-05-15T13:01:18.363Z,1.42
2019-05-15T13:04:01.356Z,1.50
2019-05-15T13:06:49.476Z,1.15
2019-05-15T13:09:27.979Z,1.10
2019-05-15T13:12:10.484Z,1.50
2019-05-15T13:14:53.009Z,1.47
2019-05-15T13:17:34.755Z,1.52
2019-05-15T13:20:18.427Z,1.60
2019-05-15T13:23:00.902Z,1.62
2019-05-15T13:25:43.501Z,1.62
2019-05-15T13:28:25.622Z,1.50
2019-05-15T13:31:09.121Z,1.62
2019-05-15T13:33:39.290Z,1.60
2019-05-15T13:36:32.022Z,1.70
2019-05-15T13:39:14.254Z,1.40
2019-05-15T13:41:58.474Z,1.30
2019-05-15T13:44:29.298Z,1.60
2019-05-15T13:47:25.203Z,1.35
2019-05-15T13:50:07.935Z,1.37
2019-05-15T13:52:50.657Z,1.35
2019-05-15T13:55:36.345Z,1.30
2019-05-15T13:58:16.376Z,1.37
2019-05-15T14:00:58.755Z,1.98
2019-05-15T14:03:42.953Z,1.55
2019-05-15T14:06:25.321Z,1.65
2019-05-15T14:09:08.824Z,1.40
2019-05-15T14:11:51.221Z,1.47
2019-05-15T14:14:33.641Z,2.50
2019-05-15T14:17:15.541Z,1.30
2019-05-15T14:19:58.008Z,1.50
2019-05-15T14:22:40.622Z,1.60
2019-05-15T14:25:50.630Z,1.57
2019-05-15T14:28:51.749Z,1.37
2019-05-15T14:31:42.703Z,1.50
2019-05-15T14:34:24.787Z,1.50
2019-05-15T14:37:10.849Z,1.47
2019-05-15T14:39:52.744Z,1.30
2019-05-15T14:42:34.779Z,1.32
2019-05-15T14:45:19.055Z,1.30
2019-05-15T14:48:00.929Z,1.22
2019-05-15T14:50:43.471Z,1.20
2019-05-15T14:53:25.541Z,1.30
2019-05-15T14:56:08.926Z,1.67
2019-05-15T14:58:51.754Z,2.05
2019-05-15T15:01:34.135Z,1.50
2019-05-15T15:04:18.493Z,1.52
2019-05-15T15:07:00.360Z,1.40
2019-05-15T15:12:44.970Z,1.77
2019-05-15T15:18:09.749Z,1.50
2019-05-15T15:20:58.789Z,1.72
2019-05-15T15:23:45.336Z,2.15
2019-05-15T15:26:33.980Z,1.90
2019-05-15T15:29:16.040Z,1.47
2019-05-15T15:31:58.964Z,1.80
2019-05-15T15:34:41.515Z,1.10
2019-05-15T15:37:21.845Z,1.80
2019-05-15T15:39:53.201Z,1.70
2019-05-15T15:42:34.556Z,1.47
2019-05-15T15:45:15.975Z,1.20
2019-05-15T15:47:58.745Z,1.27
2019-05-15T15:50:40.680Z,1.60
2019-05-15T15:53:22.719Z,1.20
2019-05-15T15:56:06.895Z,1.27
2019-05-15T15:58:48.933Z,1.10
2019-05-15T16:01:31.431Z,1.80
2019-05-15T16:04:13.737Z,1.33
2019-05-15T16:06:58.833Z,1.13
2019-05-15T16:09:40.353Z,1.43
2019-05-15T16:12:27.778Z,1.50
2019-05-15T16:15:13.461Z,1.40
2019-05-15T16:17:54.713Z,1.27
2019-05-15T16:20:39.272Z,1.37
2019-05-15T16:23:19.393Z,1.50
2019-05-15T16:26:01.302Z,1.57
2019-05-15T16:28:41.137Z,1.13
2019-05-15T16:31:29.941Z,1.20
2019-05-15T16:34:32.115Z,1.20
2019-05-15T16:37:14.131Z,1.10
2019-05-15T16:39:57.911Z,1.35
2019-05-15T16:42:40.122Z,1.10
2019-05-15T16:45:21.327Z,1.05
2019-05-15T16:48:04.037Z,1.30
2019-05-15T16:50:48.572Z,1.20
2019-05-15T16:53:30.629Z,1.02
2019-05-15T16:56:12.560Z,1.20
2019-05-15T16:58:54.485Z,1.17
2019-05-15T17:01:39.157Z,1.10
2019-05-15T17:04:20.331Z,1.05
2019-05-15T17:07:02.150Z,1.10
2019-05-15T17:09:44.469Z,1.00
2019-05-15T17:12:27.857Z,1.10
2019-05-15T17:15:09.789Z,1.00
2019-05-15T17:17:40.298Z,0.80
2019-05-15T17:20:34.855Z,0.90
2019-05-15T17:23:18.724Z,0.90
2019-05-15T17:26:00.273Z,1.30
2019-05-15T17:28:42.155Z,0.90
2019-05-15T17:31:11.589Z,1.13
2019-05-15T17:34:00.312Z,1.20
2019-05-15T17:36:41.589Z,1.00
2019-05-15T17:39:33.769Z,1.20
2019-05-15T17:42:05.818Z,1.03
2019-05-15T17:44:48.800Z,1.00
2019-05-15T17:50:12.340Z,1.03
2019-05-15T17:52:54.086Z,1.20
2019-05-15T17:55:38.266Z,1.00
2019-05-15T17:58:19.344Z,1.53
2019-05-15T18:01:00.842Z,0.90
2019-05-15T18:03:42.724Z,1.07
2019-05-15T18:06:24.416Z,1.20
2019-05-15T18:09:08.544Z,1.17
2019-05-15T18:11:49.158Z,1.33
2019-05-15T18:14:31.405Z,1.40
2019-05-15T18:17:13.210Z,1.10
2019-05-15T18:19:55.511Z,0.97
2019-05-15T18:22:37.944Z,1.30
2019-05-15T18:25:20.274Z,1.23
2019-05-15T18:28:02.021Z,1.10
2019-05-15T18:30:43.885Z,1.00
2019-05-15T18:33:25.382Z,1.10
2019-05-15T18:36:08.691Z,1.10
2019-05-15T18:38:50.307Z,1.27
2019-05-15T18:41:32.220Z,1.00
2019-05-15T18:44:13.400Z,1.10
2019-05-15T18:46:55.391Z,1.20
2019-05-15T18:49:38.040Z,1.00
2019-05-15T18:52:21.054Z,1.00
2019-05-15T18:55:03.009Z,1.27
2019-05-15T18:57:45.092Z,1.00
2019-05-15T19:00:29.645Z,1.00
2019-05-15T19:03:19.695Z,0.90
2019-05-15T19:05:54.294Z,1.00
2019-05-15T19:08:35.530Z,1.30
2019-05-15T19:11:05.236Z,1.20
2019-05-15T19:13:53.962Z,1.40
2019-05-15T19:16:42.762Z,1.20
2019-05-15T19:19:24.189Z,1.10
2019-05-15T19:22:07.734Z,1.20
2019-05-15T19:24:48.520Z,1.10
2019-05-15T19:27:30.400Z,1.07
2019-05-15T19:30:12.055Z,1.00
2019-05-15T19:32:53.710Z,1.00
2019-05-15T19:35:35.673Z,1.03
2019-05-15T19:38:18.620Z,1.10
2019-05-15T19:41:02.665Z,1.70
2019-05-15T19:43:43.302Z,2.17
2019-05-15T19:46:25.190Z,1.80
2019-05-15T19:49:08.584Z,1.30
2019-05-15T19:51:49.567Z,1.10
2019-05-15T19:54:32.093Z,1.20
2019-05-15T19:57:13.501Z,1.20
2019-05-15T19:59:55.255Z,1.20
2019-05-15T20:02:38.070Z,1.20
2019-05-15T20:05:19.940Z,1.20
2019-05-15T20:08:01.974Z,1.20
2019-05-15T20:10:45.023Z,1.10
2019-05-15T20:13:28.874Z,1.23
2019-05-15T20:16:09.813Z,1.27
2019-05-15T20:18:51.720Z,1.40
2019-05-15T20:21:32.960Z,1.50
2019-05-15T20:24:14.390Z,1.20
2019-05-15T20:26:56.002Z,1.60
2019-05-15T20:29:38.359Z,1.50
2019-05-15T20:32:20.485Z,1.57
2019-05-15T20:35:02.260Z,1.60
2019-05-15T20:37:43.423Z,1.60
2019-05-15T20:40:25.584Z,1.73
2019-05-15T20:43:08.157Z,1.40
2019-05-15T20:45:49.626Z,1.40
2019-05-15T20:48:31.414Z,1.70
2019-05-15T20:51:13.366Z,1.40
2019-05-15T20:53:54.683Z,1.90
2019-05-15T20:56:38.485Z,1.40
2019-05-15T20:59:19.859Z,1.50
2019-05-15T21:02:01.795Z,1.60
2019-05-15T21:04:46.480Z,1.73
2019-05-15T21:07:38.577Z,1.70
2019-05-15T21:10:11.239Z,1.50
2019-05-15T21:12:52.999Z,1.27
2019-05-15T21:15:34.574Z,1.50
2019-05-15T21:18:20.135Z,1.40
2019-05-15T21:21:01.296Z,1.30
2019-05-15T21:23:42.773Z,1.63
2019-05-15T21:26:24.794Z,1.40
2019-05-15T21:29:08.156Z,1.50
2019-05-15T21:31:49.224Z,2.27
2019-05-15T21:34:37.508Z,2.10
2019-05-15T21:37:14.312Z,1.90
2019-05-15T21:39:58.839Z,2.57
2019-05-15T21:42:41.738Z,2.80
2019-05-15T21:45:22.021Z,2.40
2019-05-15T21:48:08.591Z,3.20
2019-05-15T21:50:50.501Z,2.80
2019-05-15T21:53:32.167Z,2.63
2019-05-15T21:56:14.192Z,2.93
2019-05-15T21:58:58.120Z,2.70
2019-05-15T22:01:39.736Z,2.47
2019-05-15T22:04:21.163Z,1.97
2019-05-15T22:07:02.486Z,2.20
2019-05-15T22:09:45.850Z,2.27
2019-05-15T22:12:28.581Z,2.20
2019-05-15T22:15:09.843Z,1.80
2019-05-15T22:17:51.272Z,2.00
2019-05-15T22:20:33.342Z,2.10
2019-05-15T22:23:14.708Z,2.20
2019-05-15T22:25:58.414Z,2.27
2019-05-15T22:28:39.637Z,1.80
2019-05-15T22:31:21.512Z,1.50
2019-05-15T22:34:03.392Z,1.60
2019-05-15T22:36:45.060Z,1.40
2019-05-15T22:39:28.059Z,1.50
2019-05-15T22:42:10.975Z,1.57
2019-05-15T22:44:52.626Z,1.50
2019-05-15T22:47:34.282Z,1.53
2019-05-15T22:50:18.583Z,1.50
2019-05-15T22:52:59.686Z,1.63
2019-05-15T22:55:29.250Z,1.77
2019-05-15T22:58:18.043Z,1.73
2019-05-15T23:00:59.867Z,2.00
2019-05-15T23:03:42.335Z,1.60
2019-05-15T23:06:24.410Z,1.53
2019-05-15T23:09:06.355Z,1.60
2019-05-15T23:11:35.786Z,1.37
2019-05-15T23:14:24.515Z,1.30
2019-05-15T23:17:13.297Z,1.40
2019-05-15T23:19:55.152Z,1.50
2019-05-15T23:22:38.477Z,1.93
2019-05-15T23:25:19.694Z,1.20
2019-05-15T23:28:01.661Z,1.57
2019-05-15T23:30:43.661Z,1.40
2019-05-15T23:33:28.098Z,1.50
2019-05-15T23:36:09.170Z,1.37
2019-05-15T23:38:53.470Z,2.43
2019-05-15T23:41:35.392Z,1.20
2019-05-15T23:44:18.376Z,1.60
2019-05-15T23:47:00.119Z,1.40
2019-05-15T23:49:42.893Z,1.37
2019-05-15T23:52:26.198Z,1.50
2019-05-15T23:55:08.650Z,1.43
2019-05-15T23:57:50.524Z,1.50
